createdAt,value
2023-04-29T17:10:57.932Z,17.30
2023-04-29T17:13:24.613Z,17.30
2023-04-29T17:15:51.308Z,17.30
2023-04-29T17:18:17.970Z,17.30
2023-04-29T17:20:44.635Z,17.40
2023-04-29T17:23:11.320Z,17.40
2023-04-29T17:25:37.972Z,17.40
2023-04-29T17:28:06.060Z,17.40
2023-04-29T17:30:32.740Z,17.40
2023-04-29T17:32:59.462Z,17.40
2023-04-29T17:35:26.178Z,17.50
2023-04-29T17:37:52.842Z,17.40
2023-04-29T17:40:19.618Z,17.50
2023-04-29T17:42:46.289Z,17.50
2023-04-29T17:45:14.492Z,17.50
2023-04-29T17:47:41.205Z,17.50
2023-04-29T17:50:08.228Z,17.50
2023-04-29T17:52:34.886Z,17.40
2023-04-29T17:55:01.553Z,17.50
2023-04-29T17:57:28.232Z,17.50
2023-04-29T17:59:55.155Z,17.50
2023-04-29T18:02:23.473Z,17.50
2023-04-29T18:04:50.181Z,17.50
2023-04-29T18:07:16.851Z,17.50
2023-04-29T18:09:43.510Z,17.50
2023-04-29T18:12:10.209Z,17.50
2023-04-29T18:14:36.877Z,17.50
2023-04-29T18:17:03.633Z,17.50
2023-04-29T18:19:31.731Z,17.50
2023-04-29T18:21:58.394Z,17.60
2023-04-29T18:24:25.086Z,17.60
2023-04-29T18:26:51.741Z,17.60
2023-04-29T18:29:18.394Z,17.60
2023-04-29T18:31:45.060Z,17.60
2023-04-29T18:34:11.715Z,17.60
2023-04-29T18:36:39.768Z,17.60
2023-04-29T18:39:06.437Z,17.60
2023-04-29T18:41:33.157Z,17.60
2023-04-29T18:43:59.854Z,17.60
2023-04-29T18:46:26.542Z,17.60
2023-04-29T18:48:53.230Z,17.60
2023-04-29T18:51:19.908Z,17.60
2023-04-29T18:53:47.948Z,17.60
2023-04-29T18:56:14.620Z,17.60
2023-04-29T18:58:41.270Z,17.60
2023-04-29T19:01:08.007Z,17.60
2023-04-29T19:03:34.698Z,17.60
2023-04-29T19:06:01.399Z,17.60
2023-04-29T19:08:28.105Z,17.60
2023-04-29T19:10:56.445Z,17.60
2023-04-29T19:13:24.188Z,17.60
2023-04-29T19:15:51.042Z,17.60
2023-04-29T19:18:17.809Z,17.60
2023-04-29T19:20:44.482Z,17.60
2023-04-29T19:23:11.139Z,17.60
2023-04-29T19:25:37.821Z,17.60
2023-04-29T19:28:05.934Z,17.60
2023-04-29T19:30:32.611Z,17.60
2023-04-29T19:32:59.355Z,17.60
2023-04-29T19:35:26.124Z,17.60
2023-04-29T19:37:52.778Z,17.60
2023-04-29T19:40:19.459Z,17.60
2023-04-29T19:42:46.143Z,17.50
2023-04-29T19:45:14.367Z,17.50
2023-04-29T19:47:41.108Z,17.60
2023-04-29T19:50:08.096Z,17.50
2023-04-29T19:52:34.746Z,17.50
2023-04-29T19:55:01.471Z,17.50
2023-04-29T19:57:28.199Z,17.60
2023-04-29T19:59:55.120Z,17.50
2023-04-29T20:02:23.598Z,17.60
2023-04-29T20:04:50.410Z,17.60
2023-04-29T20:07:17.087Z,17.60
2023-04-29T20:09:44.015Z,17.70
2023-04-29T20:12:10.910Z,17.60
2023-04-29T20:14:37.874Z,17.60
2023-04-29T20:17:04.733Z,17.60
2023-04-29T20:19:32.972Z,17.60
2023-04-29T20:21:59.836Z,17.60
2023-04-29T20:24:26.711Z,17.60
2023-04-29T20:26:53.579Z,17.60
2023-04-29T20:29:20.442Z,17.60
2023-04-29T20:31:47.414Z,17.60
2023-04-29T20:34:14.345Z,17.60
2023-04-29T20:36:42.603Z,17.50
2023-04-29T20:39:09.472Z,17.50
2023-04-29T20:41:37.579Z,17.50
2023-04-29T20:44:04.493Z,17.50
2023-04-29T20:46:31.566Z,17.50
2023-04-29T20:48:58.560Z,17.40
2023-04-29T20:51:25.484Z,17.40
2023-04-29T20:53:53.694Z,17.40
2023-04-29T20:56:20.575Z,17.40
2023-04-29T20:58:47.461Z,17.40
2023-04-29T21:01:14.352Z,17.40
2023-04-29T21:03:41.244Z,17.40
2023-04-29T21:06:08.181Z,17.40
2023-04-29T21:08:35.066Z,17.30
2023-04-29T21:11:03.498Z,17.30
2023-04-29T21:13:30.359Z,17.30
2023-04-29T21:15:57.282Z,17.30
2023-04-29T21:18:24.252Z,17.30
2023-04-29T21:20:51.119Z,17.30
2023-04-29T21:23:17.962Z,17.30
2023-04-29T21:25:44.814Z,17.30
2023-04-29T21:28:14.336Z,17.20
2023-04-29T21:30:42.335Z,17.70
2023-04-29T21:33:09.230Z,17.20
2023-04-29T21:35:36.132Z,17.20
2023-04-29T21:38:03.021Z,17.20
2023-04-29T21:40:29.973Z,17.20
2023-04-29T21:42:57.089Z,17.20
2023-04-29T21:45:25.304Z,17.20
2023-04-29T21:47:52.246Z,17.20
2023-04-29T21:50:19.252Z,17.20
2023-04-29T21:52:46.130Z,17.20
2023-04-29T21:55:12.996Z,17.20
2023-04-29T21:57:44.072Z,17.20
2023-04-29T22:00:12.882Z,17.20
2023-04-29T22:02:41.175Z,17.20
2023-04-29T22:05:08.254Z,17.20
2023-04-29T22:07:35.171Z,17.10
2023-04-29T22:10:02.229Z,17.10
2023-04-29T22:12:29.077Z,17.10
2023-04-29T22:14:55.962Z,17.10
2023-04-29T22:17:22.919Z,17.10
2023-04-29T22:19:51.276Z,17.10
2023-04-29T22:22:18.277Z,17.10
2023-04-29T22:24:45.189Z,17.10
2023-04-29T22:27:12.065Z,17.10
2023-04-29T22:29:38.921Z,17.10
2023-04-29T22:32:05.975Z,17.10
2023-04-29T22:34:32.823Z,17.10
2023-04-29T22:37:01.061Z,17.10
2023-04-29T22:39:27.914Z,17.10
2023-04-29T22:41:54.763Z,17.10
2023-04-29T22:44:21.628Z,17.10
2023-04-29T22:46:48.505Z,17.10
2023-04-29T22:49:15.364Z,17.10
2023-04-29T22:51:42.269Z,17.10
2023-04-29T22:54:10.498Z,17.00
2023-04-29T22:56:37.362Z,17.00
2023-04-29T22:59:04.237Z,17.00
2023-04-29T23:01:31.117Z,17.00
2023-04-29T23:03:58.005Z,17.00
2023-04-29T23:06:24.973Z,17.00
2023-04-29T23:08:52.668Z,17.00
2023-04-29T23:11:20.906Z,17.00
2023-04-29T23:13:47.762Z,17.00
2023-04-29T23:16:14.694Z,17.00
2023-04-29T23:18:41.602Z,17.00
2023-04-29T23:21:08.437Z,17.00
2023-04-29T23:23:35.307Z,17.00
2023-04-29T23:26:02.158Z,17.00
2023-04-29T23:28:30.393Z,16.90
2023-04-29T23:30:57.277Z,17.00
2023-04-29T23:33:24.163Z,16.90
2023-04-29T23:35:51.156Z,16.90
2023-04-29T23:38:18.057Z,16.90
2023-04-29T23:40:44.984Z,16.90
2023-04-29T23:43:11.856Z,16.90
2023-04-29T23:45:40.133Z,16.90
2023-04-29T23:48:07.102Z,16.90
2023-04-29T23:50:34.020Z,16.90
2023-04-29T23:53:00.880Z,16.90
2023-04-29T23:55:27.735Z,16.90
2023-04-29T23:57:54.587Z,16.90
